Time;durP1;ratioP1;P1;durP2;ratioP2;P2;SDS_P1;SDS_P2;PMS_P1;PMS_P2;Temp;Humidity;BMP_temperature;BMP_pressure;BME280_temperature;BME280_humidity;BME280_pressure;Samples;Min_cycle;Max_cycle;Signal;HPM_P1;HPM_P2
2024/01/14 00:02:23;;;;;;;120.15;42.55;;;;;;;;;;5110288;28;20067;-76
2024/01/14 00:04:48;;;;;;;130.52;43.55;;;;;;;;;;5110099;28;20081;-76
2024/01/14 00:07:13;;;;;;;127.50;43.45;;;;;;;;;;5110725;28;20039;-76
2024/01/14 00:09:39;;;;;;;136.52;43.78;;;;;;;;;;5110406;28;20022;-76
2024/01/14 00:12:05;;;;;;;131.27;42.53;;;;;;;;;;5108541;28;20042;-76
2024/01/14 00:14:30;;;;;;;123.35;40.08;;;;;;;;;;5110643;27;20257;-76
2024/01/14 00:16:55;;;;;;;129.33;41.63;;;;;;;;;;5113239;28;20028;-76
2024/01/14 00:19:20;;;;;;;121.73;42.97;;;;;;;;;;5109878;28;20262;-76
2024/01/14 00:21:45;;;;;;;116.45;41.75;;;;;;;;;;5111638;28;20381;-76
2024/01/14 00:24:11;;;;;;;129.80;40.27;;;;;;;;;;5107589;28;20026;-76
2024/01/14 00:26:36;;;;;;;123.83;44.07;;;;;;;;;;5114125;28;20274;-76
2024/01/14 00:29:01;;;;;;;124.82;42.95;;;;;;;;;;5107185;28;20388;-76
2024/01/14 00:31:27;;;;;;;114.72;40.58;;;;;;;;;;5114091;28;20012;-76
2024/01/14 00:33:52;;;;;;;123.18;40.25;;;;;;;;;;5107802;28;20024;-76
2024/01/14 00:36:17;;;;;;;119.33;40.40;;;;;;;;;;5114815;28;20047;-76
2024/01/14 00:38:44;;;;;;;123.10;40.03;;;;;;;;;;5106290;27;21059;-76
2024/01/14 00:41:09;;;;;;;122.63;39.25;;;;;;;;;;5113059;28;20483;-76
2024/01/14 00:43:34;;;;;;;118.15;39.50;;;;;;;;;;5108875;27;20112;-76
2024/01/14 00:46:00;;;;;;;123.00;39.57;;;;;;;;;;5110913;28;20023;-76
2024/01/14 00:48:25;;;;;;;111.45;39.13;;;;;;;;;;5111270;27;20299;-76
2024/01/14 00:50:50;;;;;;;118.95;39.40;;;;;;;;;;5108925;28;20012;-76
2024/01/14 00:53:15;;;;;;;119.55;38.22;;;;;;;;;;5106545;28;20031;-76
2024/01/14 00:55:40;;;;;;;119.40;39.33;;;;;;;;;;5113613;28;20478;-76
2024/01/14 00:58:06;;;;;;;111.07;38.53;;;;;;;;;;5106185;28;20287;-76
2024/01/14 01:00:31;;;;;;;121.70;43.17;;;;;;;;;;5112298;28;20779;-76
2024/01/14 01:02:56;;;;;;;115.07;39.05;;;;;;;;;;5108067;28;20274;-76
2024/01/14 01:05:21;;;;;;;110.70;39.10;;;;;;;;;;5109587;28;20015;-76
2024/01/14 01:07:47;;;;;;;116.53;40.10;;;;;;;;;;5109923;27;20370;-76
2024/01/14 01:10:12;;;;;;;115.87;39.57;;;;;;;;;;5108737;28;20043;-76
2024/01/14 01:12:37;;;;;;;114.65;37.97;;;;;;;;;;5109473;28;20265;-76
2024/01/14 01:15:05;;;;;;;125.17;41.73;;;;;;;;;;5104647;28;20035;-76
2024/01/14 01:17:30;;;;;;;114.40;39.78;;;;;;;;;;5106848;28;20358;-76
2024/01/14 01:19:55;;;;;;;117.00;41.95;;;;;;;;;;5105787;28;20115;-76
2024/01/14 01:22:21;;;;;;;105.60;39.13;;;;;;;;;;5105960;28;20039;-76
2024/01/14 01:24:46;;;;;;;108.38;40.20;;;;;;;;;;5106658;28;20030;-76
2024/01/14 01:27:11;;;;;;;116.70;40.10;;;;;;;;;;5105129;28;20020;-76
2024/01/14 01:29:37;;;;;;;116.35;38.35;;;;;;;;;;5107026;28;20390;-76
2024/01/14 01:32:02;;;;;;;119.07;39.20;;;;;;;;;;5107181;28;20036;-76
2024/01/14 01:34:27;;;;;;;110.72;38.75;;;;;;;;;;5104402;28;20720;-76
2024/01/14 01:36:52;;;;;;;106.85;38.10;;;;;;;;;;5109214;28;20372;-76
2024/01/14 01:39:17;;;;;;;118.60;40.13;;;;;;;;;;5103223;28;20371;-76
2024/01/14 01:41:43;;;;;;;102.47;38.53;;;;;;;;;;5110368;28;20479;-76
2024/01/14 01:44:08;;;;;;;109.97;40.17;;;;;;;;;;5103153;28;20361;-76
2024/01/14 01:46:34;;;;;;;113.63;39.78;;;;;;;;;;5111468;28;20015;-76
2024/01/14 01:49:00;;;;;;;114.10;39.83;;;;;;;;;;5102439;28;20039;-76
2024/01/14 01:51:25;;;;;;;112.00;39.20;;;;;;;;;;5106692;28;20008;-76
2024/01/14 01:53:50;;;;;;;111.15;39.13;;;;;;;;;;5105486;28;20016;-76
2024/01/14 01:56:16;;;;;;;112.70;39.03;;;;;;;;;;5107517;28;20047;-76
2024/01/14 01:58:41;;;;;;;118.50;41.15;;;;;;;;;;5103378;28;20023;-76
2024/01/14 02:01:07;;;;;;;123.20;40.45;;;;;;;;;;5108742;28;20028;-76
2024/01/14 02:03:33;;;;;;;111.20;37.83;;;;;;;;;;5102969;28;20024;-76
2024/01/14 02:05:58;;;;;;;118.75;40.35;;;;;;;;;;5109766;28;20028;-76
2024/01/14 02:08:24;;;;;;;115.25;39.03;;;;;;;;;;5101784;28;20016;-76
2024/01/14 02:10:49;;;;;;;117.32;40.92;;;;;;;;;;5109207;28;20020;-76
2024/01/14 02:13:15;;;;;;;116.50;39.17;;;;;;;;;;5101822;28;20012;-76
2024/01/14 02:15:40;;;;;;;126.53;40.08;;;;;;;;;;5107175;28;20024;-76
2024/01/14 02:18:05;;;;;;;110.90;39.00;;;;;;;;;;5104618;28;20462;-76
2024/01/14 02:20:31;;;;;;;119.55;40.38;;;;;;;;;;5105647;28;20285;-76
2024/01/14 02:22:56;;;;;;;121.20;39.17;;;;;;;;;;5104685;28;20364;-76
2024/01/14 02:25:21;;;;;;;125.80;43.88;;;;;;;;;;5103686;28;20324;-76
2024/01/14 02:27:47;;;;;;;113.85;38.17;;;;;;;;;;5105382;28;20024;-76
2024/01/14 02:30:13;;;;;;;115.93;40.97;;;;;;;;;;5104163;28;20023;-76
2024/01/14 02:32:38;;;;;;;113.82;39.80;;;;;;;;;;5105935;28;20359;-76
2024/01/14 02:35:05;;;;;;;116.07;39.70;;;;;;;;;;5105064;28;20030;-76
2024/01/14 02:37:30;;;;;;;120.10;40.67;;;;;;;;;;5104259;28;20308;-76
2024/01/14 02:39:55;;;;;;;123.15;41.15;;;;;;;;;;5105354;28;20038;-76
2024/01/14 02:42:21;;;;;;;122.03;41.63;;;;;;;;;;5105416;28;20023;-76
2024/01/14 02:44:46;;;;;;;130.23;40.30;;;;;;;;;;5104221;28;20024;-76
2024/01/14 02:47:11;;;;;;;126.97;41.53;;;;;;;;;;5107601;28;20019;-76
2024/01/14 02:49:36;;;;;;;120.07;38.80;;;;;;;;;;5108074;28;20095;-76
2024/01/14 02:52:02;;;;;;;117.00;40.87;;;;;;;;;;5107914;28;20023;-76
2024/01/14 02:54:27;;;;;;;124.47;40.70;;;;;;;;;;5105811;28;20276;-76
2024/01/14 02:56:53;;;;;;;122.65;40.63;;;;;;;;;;5103460;28;20127;-76
2024/01/14 02:59:18;;;;;;;123.05;41.70;;;;;;;;;;5104116;28;20027;-76
2024/01/14 03:01:46;;;;;;;125.95;43.30;;;;;;;;;;5103143;28;20023;-76
2024/01/14 03:04:11;;;;;;;111.95;38.90;;;;;;;;;;5104555;28;20026;-76
2024/01/14 03:06:36;;;;;;;108.70;38.72;;;;;;;;;;5104709;28;20134;-77
2024/01/14 03:09:02;;;;;;;104.47;39.25;;;;;;;;;;5103456;28;20113;-77
2024/01/14 03:11:27;;;;;;;106.75;36.75;;;;;;;;;;5106295;28;20042;-76
2024/01/14 03:13:52;;;;;;;112.65;37.70;;;;;;;;;;5101265;28;20044;-77
2024/01/14 03:16:18;;;;;;;111.43;38.07;;;;;;;;;;5109051;28;20471;-77
2024/01/14 03:18:43;;;;;;;103.32;35.88;;;;;;;;;;5100183;28;20266;-76
2024/01/14 03:21:15;;;;;;;107.50;37.88;;;;;;;;;;5108946;28;20123;-77
2024/01/14 03:23:40;;;;;;;110.00;37.75;;;;;;;;;;5101670;28;20020;-77
2024/01/14 03:26:05;;;;;;;109.30;37.23;;;;;;;;;;5108471;28;20554;-77
2024/01/14 03:28:30;;;;;;;111.77;37.40;;;;;;;;;;5102072;28;20273;-76
2024/01/14 03:30:56;;;;;;;109.65;38.92;;;;;;;;;;5104999;28;21740;-76
2024/01/14 03:33:21;;;;;;;111.90;38.95;;;;;;;;;;5102717;28;20012;-77
2024/01/14 03:35:46;;;;;;;104.50;36.73;;;;;;;;;;5103081;28;20032;-76
2024/01/14 03:38:11;;;;;;;107.35;36.55;;;;;;;;;;5103942;28;20284;-77
2024/01/14 03:40:36;;;;;;;113.38;37.47;;;;;;;;;;5102949;28;20497;-77
2024/01/14 03:43:02;;;;;;;105.40;35.70;;;;;;;;;;5104375;28;20368;-76
2024/01/14 03:45:27;;;;;;;110.82;38.45;;;;;;;;;;5106603;28;20337;-77
2024/01/14 03:47:52;;;;;;;110.00;39.53;;;;;;;;;;5105593;28;20047;-77
2024/01/14 03:50:17;;;;;;;111.70;36.63;;;;;;;;;;5104022;28;20274;-77
2024/01/14 03:52:42;;;;;;;115.10;39.60;;;;;;;;;;5106479;28;20281;-77
2024/01/14 03:55:08;;;;;;;102.22;36.40;;;;;;;;;;5102436;28;20023;-77
2024/01/14 03:57:33;;;;;;;103.55;36.17;;;;;;;;;;5104397;28;20061;-77
2024/01/14 03:59:58;;;;;;;91.60;35.13;;;;;;;;;;5103808;28;20016;-77
2024/01/14 04:02:23;;;;;;;98.37;34.60;;;;;;;;;;5103013;28;20028;-77
2024/01/14 04:04:49;;;;;;;101.13;36.57;;;;;;;;;;5106240;28;20322;-77
2024/01/14 04:07:14;;;;;;;98.43;35.10;;;;;;;;;;5112812;28;20764;-77
2024/01/14 04:09:39;;;;;;;99.03;32.83;;;;;;;;;;5111858;28;20019;-77
2024/01/14 04:12:04;;;;;;;98.87;35.77;;;;;;;;;;5106399;28;20305;-77
2024/01/14 04:14:30;;;;;;;104.93;35.97;;;;;;;;;;5104574;28;20339;-77
2024/01/14 04:16:55;;;;;;;98.03;33.65;;;;;;;;;;5101944;28;20526;-77
2024/01/14 04:19:20;;;;;;;102.25;35.05;;;;;;;;;;5107301;28;20024;-77
2024/01/14 04:21:46;;;;;;;94.70;35.90;;;;;;;;;;5099942;28;20035;-77
2024/01/14 04:24:11;;;;;;;97.35;34.00;;;;;;;;;;5103306;28;20273;-76
2024/01/14 04:26:36;;;;;;;96.75;34.60;;;;;;;;;;5103408;28;20028;-77
2024/01/14 04:29:01;;;;;;;96.50;33.97;;;;;;;;;;5100745;28;20023;-77
2024/01/14 04:31:27;;;;;;;103.43;34.47;;;;;;;;;;5108809;28;20262;-76
2024/01/14 04:33:52;;;;;;;95.67;33.00;;;;;;;;;;5100875;28;20274;-77
2024/01/14 04:36:17;;;;;;;98.65;34.85;;;;;;;;;;5108031;28;20289;-77
2024/01/14 04:38:42;;;;;;;91.60;31.90;;;;;;;;;;5105009;28;20062;-77
2024/01/14 04:41:08;;;;;;;93.10;33.03;;;;;;;;;;5112095;28;20367;-77
2024/01/14 04:43:33;;;;;;;87.60;32.58;;;;;;;;;;5109928;28;20015;-77
2024/01/14 04:45:58;;;;;;;95.37;34.00;;;;;;;;;;5105630;28;20483;-77
2024/01/14 04:48:23;;;;;;;88.60;33.23;;;;;;;;;;5103934;28;20270;-77
2024/01/14 04:50:50;;;;;;;90.93;30.03;;;;;;;;;;5106551;28;20691;-77
2024/01/14 04:53:15;;;;;;;90.40;31.35;;;;;;;;;;5108478;28;20261;-77
2024/01/14 04:55:40;;;;;;;88.47;31.47;;;;;;;;;;5107568;28;20051;-77
2024/01/14 04:58:05;;;;;;;76.05;28.80;;;;;;;;;;5106703;28;20253;-77
2024/01/14 05:00:30;;;;;;;79.13;29.97;;;;;;;;;;5107871;28;20417;-77
2024/01/14 05:02:56;;;;;;;78.63;27.83;;;;;;;;;;5107410;28;20293;-77
2024/01/14 05:05:21;;;;;;;75.18;28.50;;;;;;;;;;5106464;28;20011;-77
2024/01/14 05:07:46;;;;;;;74.63;26.90;;;;;;;;;;5106211;28;20032;-77
2024/01/14 05:10:12;;;;;;;70.95;27.75;;;;;;;;;;5107430;28;20685;-77
2024/01/14 05:12:37;;;;;;;73.25;28.00;;;;;;;;;;5110769;28;20024;-77
2024/01/14 05:15:03;;;;;;;73.03;26.85;;;;;;;;;;5108937;28;20020;-77
2024/01/14 05:17:28;;;;;;;76.78;26.45;;;;;;;;;;5111572;28;20405;-77
2024/01/14 05:19:53;;;;;;;72.63;26.83;;;;;;;;;;5106147;28;20023;-77
2024/01/14 05:22:18;;;;;;;70.88;25.98;;;;;;;;;;5111385;28;20273;-77
2024/01/14 05:24:44;;;;;;;77.50;28.17;;;;;;;;;;5105291;28;20043;-77
2024/01/14 05:27:11;;;;;;;74.75;27.02;;;;;;;;;;5115282;28;20047;-77
2024/01/14 05:29:39;;;;;;;74.10;28.25;;;;;;;;;;5106646;28;20024;-77
2024/01/14 05:32:04;;;;;;;75.03;27.67;;;;;;;;;;5110879;28;20068;-77
2024/01/14 05:34:29;;;;;;;75.85;28.20;;;;;;;;;;5103229;28;20020;-77
2024/01/14 05:36:54;;;;;;;79.88;30.40;;;;;;;;;;5103303;28;20034;-77
2024/01/14 05:39:20;;;;;;;77.85;28.60;;;;;;;;;;5111650;28;20458;-77
2024/01/14 05:41:45;;;;;;;77.33;28.87;;;;;;;;;;5113601;28;20399;-77
2024/01/14 05:44:11;;;;;;;85.05;29.90;;;;;;;;;;5103364;28;20286;-77
2024/01/14 05:46:36;;;;;;;83.90;30.17;;;;;;;;;;5109584;28;20032;-76
2024/01/14 05:49:01;;;;;;;83.27;32.33;;;;;;;;;;5104381;28;20277;-76
2024/01/14 05:51:26;;;;;;;84.97;30.93;;;;;;;;;;5110312;28;20323;-77
2024/01/14 05:53:52;;;;;;;85.70;29.30;;;;;;;;;;5102337;28;20274;-77
2024/01/14 05:56:25;;;;;;;85.82;29.75;;;;;;;;;;5109557;28;20281;-77
2024/01/14 05:58:50;;;;;;;88.35;31.73;;;;;;;;;;5106509;28;20023;-76
2024/01/14 06:01:15;;;;;;;83.20;30.47;;;;;;;;;;5107664;28;20027;-77
2024/01/14 06:03:40;;;;;;;86.05;31.10;;;;;;;;;;5104570;28;20699;-77
2024/01/14 06:06:06;;;;;;;87.20;30.70;;;;;;;;;;5106639;28;20575;-76
2024/01/14 06:08:31;;;;;;;90.22;31.17;;;;;;;;;;5105324;28;20272;-77
2024/01/14 06:10:56;;;;;;;84.73;30.83;;;;;;;;;;5105362;28;20032;-77
2024/01/14 06:13:21;;;;;;;83.60;28.83;;;;;;;;;;5106065;28;20356;-76
2024/01/14 06:15:47;;;;;;;79.70;29.65;;;;;;;;;;5104433;28;20806;-76
2024/01/14 06:18:12;;;;;;;82.00;29.30;;;;;;;;;;5105698;28;20370;-77
2024/01/14 06:20:37;;;;;;;82.80;29.30;;;;;;;;;;5105984;28;20301;-76
2024/01/14 06:23:02;;;;;;;86.05;30.75;;;;;;;;;;5104427;28;20266;-76
2024/01/14 06:25:28;;;;;;;77.32;28.50;;;;;;;;;;5105866;28;20023;-77
2024/01/14 06:27:53;;;;;;;85.50;28.40;;;;;;;;;;5105810;28;20467;-77
2024/01/14 06:30:18;;;;;;;74.65;26.42;;;;;;;;;;5104977;28;20265;-76
2024/01/14 06:32:43;;;;;;;79.13;29.58;;;;;;;;;;5107445;28;20032;-76
2024/01/14 06:35:08;;;;;;;72.00;27.00;;;;;;;;;;5105732;28;20023;-76
2024/01/14 06:37:34;;;;;;;74.00;28.33;;;;;;;;;;5105634;28;20344;-77
2024/01/14 06:39:59;;;;;;;75.13;28.67;;;;;;;;;;5112146;28;20031;-77
2024/01/14 06:42:24;;;;;;;78.93;27.73;;;;;;;;;;5108929;28;20305;-76
2024/01/14 06:44:49;;;;;;;71.37;26.53;;;;;;;;;;5105176;28;20278;-76
2024/01/14 06:47:14;;;;;;;69.45;26.50;;;;;;;;;;5103762;28;20266;-76
2024/01/14 06:49:39;;;;;;;69.23;27.23;;;;;;;;;;5105993;28;20015;-76
2024/01/14 06:52:05;;;;;;;73.87;28.00;;;;;;;;;;5105985;28;20282;-76
2024/01/14 06:54:30;;;;;;;79.13;30.60;;;;;;;;;;5102990;28;20278;-76
2024/01/14 06:56:55;;;;;;;68.07;25.63;;;;;;;;;;5107141;28;20048;-76
2024/01/14 06:59:21;;;;;;;68.00;25.57;;;;;;;;;;5102098;28;20285;-77
2024/01/14 07:01:47;;;;;;;76.70;27.20;;;;;;;;;;5102304;28;20301;-76
2024/01/14 07:04:12;;;;;;;78.95;27.58;;;;;;;;;;5102753;28;20012;-77
2024/01/14 07:06:37;;;;;;;67.60;27.65;;;;;;;;;;5109799;28;20019;-76
2024/01/14 07:09:04;;;;;;;78.77;28.40;;;;;;;;;;5101462;28;20027;-76
2024/01/14 07:11:29;;;;;;;71.88;27.65;;;;;;;;;;5107296;28;20682;-76
2024/01/14 07:13:54;;;;;;;74.18;27.02;;;;;;;;;;5102493;28;20055;-76
2024/01/14 07:16:19;;;;;;;74.40;27.00;;;;;;;;;;5106799;28;20049;-76
2024/01/14 07:18:44;;;;;;;69.73;26.77;;;;;;;;;;5103988;28;20621;-77
2024/01/14 07:21:12;;;;;;;77.33;28.00;;;;;;;;;;5104457;28;20297;-76
2024/01/14 07:23:38;;;;;;;72.57;27.95;;;;;;;;;;5104800;28;20266;-76
2024/01/14 07:26:05;;;;;;;78.30;27.50;;;;;;;;;;5102142;28;20034;-76
2024/01/14 07:28:30;;;;;;;77.97;27.67;;;;;;;;;;5103957;28;20019;-76
2024/01/14 07:30:56;;;;;;;87.13;29.98;;;;;;;;;;5104404;28;20020;-76
2024/01/14 07:33:21;;;;;;;77.95;27.40;;;;;;;;;;5101031;28;20024;-77
2024/01/14 07:35:46;;;;;;;74.53;27.88;;;;;;;;;;5107640;28;20027;-77
2024/01/14 07:38:11;;;;;;;70.60;26.53;;;;;;;;;;5102922;28;20467;-77
2024/01/14 07:40:36;;;;;;;76.83;26.53;;;;;;;;;;5103470;28;20304;-77
2024/01/14 07:43:02;;;;;;;78.03;28.50;;;;;;;;;;5104477;28;20273;-76
2024/01/14 07:45:27;;;;;;;86.65;27.73;;;;;;;;;;5102273;28;20024;-77
2024/01/14 07:47:52;;;;;;;76.10;27.37;;;;;;;;;;5104080;28;20020;-76
2024/01/14 07:50:17;;;;;;;73.83;28.23;;;;;;;;;;5104701;28;20274;-76
2024/01/14 07:52:42;;;;;;;73.32;26.10;;;;;;;;;;5103049;28;20272;-76
2024/01/14 07:55:07;;;;;;;69.30;26.90;;;;;;;;;;5106004;28;20023;-77
2024/01/14 07:57:34;;;;;;;72.38;25.63;;;;;;;;;;5102970;28;20373;-76
2024/01/14 07:59:59;;;;;;;67.95;25.38;;;;;;;;;;5102847;28;20024;-76
2024/01/14 08:02:24;;;;;;;61.67;24.52;;;;;;;;;;5104032;28;20042;-76
2024/01/14 08:04:49;;;;;;;63.77;25.33;;;;;;;;;;5105718;28;20028;-77
2024/01/14 08:07:14;;;;;;;62.93;24.67;;;;;;;;;;5105074;28;20277;-77
2024/01/14 08:09:40;;;;;;;62.75;22.95;;;;;;;;;;5103722;28;20266;-76
2024/01/14 08:12:05;;;;;;;67.73;25.87;;;;;;;;;;5107899;28;20384;-76
2024/01/14 08:14:30;;;;;;;59.55;23.77;;;;;;;;;;5102584;28;20298;-77
2024/01/14 08:16:56;;;;;;;67.00;23.70;;;;;;;;;;5111614;28;20477;-77
2024/01/14 08:19:21;;;;;;;67.32;24.45;;;;;;;;;;5104409;28;20020;-76
2024/01/14 08:21:47;;;;;;;65.60;25.38;;;;;;;;;;5107892;28;20386;-76
2024/01/14 08:24:12;;;;;;;60.42;23.10;;;;;;;;;;5109664;28;20103;-76
2024/01/14 08:26:44;;;;;;;61.90;25.45;;;;;;;;;;5105208;28;20063;-76
2024/01/14 08:29:12;;;;;;;61.83;23.27;;;;;;;;;;5110026;28;20371;-76
2024/01/14 08:31:37;;;;;;;68.05;24.95;;;;;;;;;;5104853;28;20090;-76
2024/01/14 08:34:03;;;;;;;63.90;24.93;;;;;;;;;;5110781;28;20421;-77
2024/01/14 08:36:29;;;;;;;65.60;24.35;;;;;;;;;;5106211;28;20688;-76
2024/01/14 08:38:54;;;;;;;67.60;25.45;;;;;;;;;;5104369;28;20107;-77
2024/01/14 08:41:24;;;;;;;61.43;24.37;;;;;;;;;;5111622;28;20047;-76
2024/01/14 08:43:49;;;;;;;64.63;24.73;;;;;;;;;;5103454;28;20599;-76
2024/01/14 08:46:14;;;;;;;70.47;24.50;;;;;;;;;;5112949;28;20035;-76
2024/01/14 08:48:40;;;;;;;66.87;25.43;;;;;;;;;;5106464;28;20348;-77
2024/01/14 08:51:08;;;;;;;60.83;24.48;;;;;;;;;;5110626;28;20266;-77
2024/01/14 08:53:33;;;;;;;64.55;25.13;;;;;;;;;;5112116;28;20133;-76
2024/01/14 08:55:58;;;;;;;65.57;25.37;;;;;;;;;;5107890;28;20105;-77
2024/01/14 08:58:23;;;;;;;62.73;24.17;;;;;;;;;;5101683;28;20626;-76
2024/01/14 09:00:48;;;;;;;61.30;25.13;;;;;;;;;;5108833;28;20289;-76
2024/01/14 09:03:14;;;;;;;63.65;23.13;;;;;;;;;;5106761;28;20606;-76
2024/01/14 09:05:39;;;;;;;65.10;26.08;;;;;;;;;;5106919;28;20099;-76
2024/01/14 09:08:04;;;;;;;64.32;24.20;;;;;;;;;;5107128;28;20062;-76
2024/01/14 09:10:29;;;;;;;59.33;22.33;;;;;;;;;;5106545;28;20068;-76
2024/01/14 09:12:55;;;;;;;59.33;24.40;;;;;;;;;;5106277;28;20479;-76
2024/01/14 09:15:20;;;;;;;62.53;24.80;;;;;;;;;;5106930;28;20269;-76
2024/01/14 09:17:45;;;;;;;59.10;25.05;;;;;;;;;;5105692;28;20107;-76
2024/01/14 09:20:10;;;;;;;64.00;25.17;;;;;;;;;;5107354;28;20110;-76
2024/01/14 09:22:36;;;;;;;60.75;23.83;;;;;;;;;;5105950;28;20261;-77
2024/01/14 09:25:01;;;;;;;60.97;25.17;;;;;;;;;;5104330;28;20024;-76
2024/01/14 09:27:30;;;;;;;65.10;25.80;;;;;;;;;;5107253;28;20341;-76
2024/01/14 09:29:55;;;;;;;66.90;24.70;;;;;;;;;;5107911;28;20312;-77
2024/01/14 09:32:20;;;;;;;69.40;26.53;;;;;;;;;;5108909;28;20059;-76
2024/01/14 09:34:46;;;;;;;71.07;26.38;;;;;;;;;;5105308;28;20270;-77
2024/01/14 09:37:11;;;;;;;68.90;25.80;;;;;;;;;;5105159;28;20077;-76
2024/01/14 09:39:36;;;;;;;63.60;25.70;;;;;;;;;;5113525;28;20277;-76
2024/01/14 09:42:02;;;;;;;70.03;27.45;;;;;;;;;;5106007;28;20358;-76
2024/01/14 09:44:27;;;;;;;65.93;26.60;;;;;;;;;;5107008;28;20016;-77
2024/01/14 09:46:54;;;;;;;78.45;28.48;;;;;;;;;;5107325;28;20122;-76
2024/01/14 09:49:19;;;;;;;73.35;26.65;;;;;;;;;;5105173;28;20341;-76
2024/01/14 09:51:45;;;;;;;71.82;26.13;;;;;;;;;;5113224;28;20012;-76
2024/01/14 09:54:11;;;;;;;68.43;26.90;;;;;;;;;;5105372;28;20460;-76
2024/01/14 09:56:37;;;;;;;69.55;27.50;;;;;;;;;;5113291;28;20046;-76
2024/01/14 09:59:03;;;;;;;70.07;27.45;;;;;;;;;;5112722;28;20462;-76
2024/01/14 10:01:31;;;;;;;70.55;27.98;;;;;;;;;;5113856;28;20027;-76
2024/01/14 10:04:00;;;;;;;66.75;26.75;;;;;;;;;;5107372;28;20089;-76
2024/01/14 10:06:26;;;;;;;68.38;28.08;;;;;;;;;;5109396;28;20368;-75
2024/01/14 10:08:51;;;;;;;68.63;25.08;;;;;;;;;;5113441;28;20049;-76
2024/01/14 10:11:16;;;;;;;64.80;26.92;;;;;;;;;;5111516;28;20458;-74
2024/01/14 10:13:41;;;;;;;64.70;24.53;;;;;;;;;;5111681;28;20505;-73
2024/01/14 10:16:07;;;;;;;63.77;25.20;;;;;;;;;;5108968;28;20262;-75
2024/01/14 10:18:32;;;;;;;64.75;27.02;;;;;;;;;;5109526;28;20269;-76
2024/01/14 10:21:00;;;;;;;64.30;24.80;;;;;;;;;;5103010;28;20032;-75
2024/01/14 10:23:25;;;;;;;60.65;25.33;;;;;;;;;;5105451;28;20020;-75
2024/01/14 10:25:54;;;;;;;82.17;26.97;;;;;;;;;;5104970;28;20024;-75
2024/01/14 10:28:19;;;;;;;56.40;25.13;;;;;;;;;;5102967;28;20319;-75
2024/01/14 10:30:44;;;;;;;56.92;24.38;;;;;;;;;;5105614;28;20487;-75
2024/01/14 10:33:09;;;;;;;51.93;22.33;;;;;;;;;;5101422;28;20019;-76
2024/01/14 10:35:35;;;;;;;56.28;24.48;;;;;;;;;;5100028;28;20278;-76
2024/01/14 10:38:01;;;;;;;55.42;23.25;;;;;;;;;;5102177;28;20189;-75
2024/01/14 10:40:26;;;;;;;54.45;23.13;;;;;;;;;;5106268;27;20102;-76
2024/01/14 10:42:52;;;;;;;55.78;24.95;;;;;;;;;;5104281;28;20123;-76
2024/01/14 10:45:17;;;;;;;56.13;23.58;;;;;;;;;;5102440;28;20482;-76
2024/01/14 10:47:46;;;;;;;55.63;23.45;;;;;;;;;;5102904;28;20035;-76
2024/01/14 10:50:12;;;;;;;55.90;23.83;;;;;;;;;;5110738;28;20360;-76
2024/01/14 10:52:39;;;;;;;52.75;23.77;;;;;;;;;;5110005;28;20024;-76
2024/01/14 10:55:15;;;;;;;61.30;23.90;;;;;;;;;;5112484;28;20467;-76
2024/01/14 10:57:42;;;;;;;53.08;22.42;;;;;;;;;;5108926;28;20106;-83
2024/01/14 11:00:08;;;;;;;56.75;23.42;;;;;;;;;;5104937;28;20039;-76
2024/01/14 11:02:34;;;;;;;53.97;22.55;;;;;;;;;;5106971;28;20091;-75
2024/01/14 11:05:00;;;;;;;56.25;23.80;;;;;;;;;;5104744;28;20011;-76
2024/01/14 11:07:25;;;;;;;61.00;24.83;;;;;;;;;;5105361;28;20020;-76
2024/01/14 11:09:52;;;;;;;59.45;23.65;;;;;;;;;;5103449;28;20019;-75
2024/01/14 11:12:17;;;;;;;57.67;24.55;;;;;;;;;;5107568;28;20020;-76
2024/01/14 11:14:58;;;;;;;58.88;23.73;;;;;;;;;;5107816;28;20027;-76
2024/01/14 11:17:37;;;;;;;63.08;24.65;;;;;;;;;;5106442;28;20513;-76
2024/01/14 11:20:02;;;;;;;62.88;24.58;;;;;;;;;;5103583;28;20028;-76
2024/01/14 11:22:28;;;;;;;65.72;26.88;;;;;;;;;;5105915;28;20040;-76
2024/01/14 11:24:53;;;;;;;63.58;25.00;;;;;;;;;;5108630;28;20020;-76
2024/01/14 11:27:18;;;;;;;67.47;26.83;;;;;;;;;;5111146;28;20027;-76
2024/01/14 11:29:43;;;;;;;69.35;25.08;;;;;;;;;;5103144;28;20015;-76
2024/01/14 11:32:20;;;;;;;68.13;26.08;;;;;;;;;;5102667;28;20103;-76
2024/01/14 11:34:48;;;;;;;71.45;26.13;;;;;;;;;;5106629;28;20054;-76
2024/01/14 11:37:32;;;;;;;66.05;25.70;;;;;;;;;;5110506;28;20107;-76
2024/01/14 11:40:03;;;;;;;71.35;27.10;;;;;;;;;;5110208;28;20511;-76
2024/01/14 11:42:28;;;;;;;68.70;27.33;;;;;;;;;;5104325;28;20035;-76
2024/01/14 11:44:54;;;;;;;69.10;27.33;;;;;;;;;;5103328;28;20019;-76
2024/01/14 11:47:20;;;;;;;72.03;26.50;;;;;;;;;;5108673;28;20278;-76
2024/01/14 11:49:50;;;;;;;66.72;26.02;;;;;;;;;;5111177;28;20749;-75
2024/01/14 11:52:16;;;;;;;71.93;28.10;;;;;;;;;;5108300;28;20537;-76
2024/01/14 11:54:43;;;;;;;70.10;27.25;;;;;;;;;;5100299;28;20011;-76
2024/01/14 11:57:34;;;;;;;74.57;27.30;;;;;;;;;;5104764;28;20089;-76
2024/01/14 12:00:00;;;;;;;70.78;26.00;;;;;;;;;;5100914;28;20092;-76
2024/01/14 12:02:25;;;;;;;74.30;25.35;;;;;;;;;;5108677;28;20024;-76
2024/01/14 12:04:51;;;;;;;75.97;29.00;;;;;;;;;;5103875;28;20030;-76
2024/01/14 12:07:20;;;;;;;75.53;28.25;;;;;;;;;;5104606;28;20048;-76
2024/01/14 12:09:55;;;;;;;73.60;28.00;;;;;;;;;;5104306;28;20518;-76
2024/01/14 12:12:21;;;;;;;72.88;28.77;;;;;;;;;;5106256;28;20020;-76
2024/01/14 12:14:46;;;;;;;77.13;26.90;;;;;;;;;;5100943;28;20038;-77
2024/01/14 12:17:12;;;;;;;75.67;28.30;;;;;;;;;;5103854;28;20016;-76
2024/01/14 12:19:37;;;;;;;106.00;29.75;;;;;;;;;;5101835;28;20828;-76
2024/01/14 12:22:02;;;;;;;72.38;26.23;;;;;;;;;;5103590;28;20034;-76
2024/01/14 12:24:30;;;;;;;69.45;26.23;;;;;;;;;;5105292;28;20020;-76
2024/01/14 12:26:58;;;;;;;74.07;26.27;;;;;;;;;;5100106;28;20020;-79
2024/01/14 12:29:23;;;;;;;71.88;25.45;;;;;;;;;;5105507;28;20460;-77
2024/01/14 12:31:48;;;;;;;77.90;28.38;;;;;;;;;;5102704;28;20027;-75
2024/01/14 12:34:14;;;;;;;69.97;27.48;;;;;;;;;;5108486;28;20015;-74
2024/01/14 12:36:39;;;;;;;65.80;26.45;;;;;;;;;;5101913;28;20028;-73
2024/01/14 12:39:04;;;;;;;67.27;25.33;;;;;;;;;;5108749;28;20019;-74
2024/01/14 12:41:29;;;;;;;69.60;26.17;;;;;;;;;;5110851;28;20818;-76
2024/01/14 12:43:55;;;;;;;64.78;25.50;;;;;;;;;;5105106;28;20047;-76
2024/01/14 12:46:20;;;;;;;64.43;25.15;;;;;;;;;;5110569;28;20505;-76
2024/01/14 12:48:45;;;;;;;63.20;25.33;;;;;;;;;;5105048;28;20103;-75
2024/01/14 12:51:10;;;;;;;65.10;25.13;;;;;;;;;;5106621;28;20043;-75
2024/01/14 12:53:35;;;;;;;63.53;25.10;;;;;;;;;;5100816;28;20272;-75
2024/01/14 12:56:10;;;;;;;66.83;25.33;;;;;;;;;;5104632;28;20316;-75
2024/01/14 12:58:36;;;;;;;68.63;25.98;;;;;;;;;;5106722;28;20645;-75
2024/01/14 13:01:01;;;;;;;68.18;26.63;;;;;;;;;;5105007;28;20036;-75
2024/01/14 13:03:27;;;;;;;68.47;23.85;;;;;;;;;;5102709;28;20020;-76
2024/01/14 13:05:52;;;;;;;65.00;26.08;;;;;;;;;;5103372;28;20096;-75
2024/01/14 13:08:17;;;;;;;58.15;25.08;;;;;;;;;;5103542;28;20453;-75
2024/01/14 13:10:42;;;;;;;57.30;24.33;;;;;;;;;;5103137;28;20032;-75
2024/01/14 13:13:08;;;;;;;61.03;23.08;;;;;;;;;;5106049;28;20060;-75
2024/01/14 13:15:33;;;;;;;63.77;23.97;;;;;;;;;;5107558;28;20378;-75
2024/01/14 13:17:59;;;;;;;54.75;23.80;;;;;;;;;;5103211;28;20258;-75
2024/01/14 13:20:25;;;;;;;57.08;24.77;;;;;;;;;;5107172;28;20008;-75
2024/01/14 13:22:50;;;;;;;60.38;23.33;;;;;;;;;;5104240;28;20065;-75
2024/01/14 13:25:15;;;;;;;60.23;23.93;;;;;;;;;;5106016;28;20019;-75
2024/01/14 13:27:40;;;;;;;56.22;23.75;;;;;;;;;;5105989;28;20343;-75
2024/01/14 13:30:08;;;;;;;61.63;24.40;;;;;;;;;;5104401;28;20012;-76
2024/01/14 13:32:36;;;;;;;61.95;24.27;;;;;;;;;;5106896;28;20065;-76
2024/01/14 13:35:01;;;;;;;63.67;24.67;;;;;;;;;;5104093;28;20028;-75
2024/01/14 13:37:26;;;;;;;58.25;24.10;;;;;;;;;;5106270;28;20026;-76
2024/01/14 13:39:52;;;;;;;65.47;24.33;;;;;;;;;;5106203;28;20106;-76
2024/01/14 13:42:18;;;;;;;59.17;23.58;;;;;;;;;;5105987;27;20281;-76
2024/01/14 13:44:43;;;;;;;61.15;24.27;;;;;;;;;;5105642;28;20024;-76
2024/01/14 13:47:08;;;;;;;53.43;23.27;;;;;;;;;;5106187;28;20043;-75
2024/01/14 13:49:34;;;;;;;57.00;23.48;;;;;;;;;;5108930;28;20667;-76
2024/01/14 13:51:59;;;;;;;63.38;23.67;;;;;;;;;;5106984;28;20459;-75
2024/01/14 13:54:24;;;;;;;54.40;22.50;;;;;;;;;;5104244;28;20031;-76
2024/01/14 13:56:54;;;;;;;60.63;24.80;;;;;;;;;;5109922;28;20310;-75
2024/01/14 13:59:20;;;;;;;59.03;22.65;;;;;;;;;;5102531;28;20282;-76
2024/01/14 14:01:45;;;;;;;61.85;24.27;;;;;;;;;;5111062;28;20032;-76
2024/01/14 14:04:10;;;;;;;64.70;24.88;;;;;;;;;;5103063;28;20024;-76
2024/01/14 14:06:36;;;;;;;56.20;23.70;;;;;;;;;;5110651;28;20039;-75